Vandenberg Air Force Base
KVBG : now visible

Airfield :











YOU CAN JOIN US ON...

 
LOGIN :

Register | Disclaimer

   EN    FR    IT 

 









Legend :    VFR   Marginal VFR   IFR   Intensive IFR   Very Intensive IFR
Visi :
Ceiling :
>= 8 km
>= 3000ft
5 to 8 km
1000 to 3000 ft
1500m to 5 km
500 to 1000 ft
800 to 1500m
200 to 500 ft
< 800m
< 200 ft
Symbols :   Thunderstorms  Fog  Heavy snow  Heavy precipitations  Wind > 20 kt






- Airport Elevation : 369 ft


KVBG - Vandenberg Air Force Base

CURRENT METAR :
  • 122058Z 35013KT 9SM BKN003 16/15 A3024 RMK AO2A SLP243 T01640145 57021

EXPIRED METARs :
  • 122039Z 34011KT 10SM BKN003 16/15 A3025 RMK BKN V SCT SLP246
  • 121958Z 34011KT 250V360 10SM FEW003 FEW010 BKN250 17/14 A3026 RMK AO2A CIG 003 RWY12 SLP250 T01720143